createdAt,value
2023-01-01T00:00:24.604Z,719.30
2023-01-01T00:02:52.676Z,961.13
2023-01-01T00:05:20.725Z,725.50
2023-01-01T00:07:48.971Z,999.90
2023-01-01T00:10:29.193Z,644.73
2023-01-01T00:12:59.157Z,834.30
2023-01-01T00:15:28.552Z,577.90
2023-01-01T00:17:57.815Z,902.77
2023-01-01T00:20:31.427Z,595.57
2023-01-01T00:23:02.948Z,627.17
2023-01-01T00:25:32.589Z,687.47
2023-01-01T00:28:03.067Z,595.93
2023-01-01T00:30:31.145Z,587.83
2023-01-01T00:32:59.185Z,517.97
2023-01-01T00:35:28.066Z,972.10
2023-01-01T00:37:56.944Z,628.17
2023-01-01T00:40:25.217Z,599.90
2023-01-01T00:42:53.320Z,711.77
2023-01-01T00:45:23.207Z,584.77
2023-01-01T00:47:52.106Z,545.33
2023-01-01T00:50:20.660Z,527.70
2023-01-01T00:52:49.146Z,709.23
2023-01-01T00:55:17.627Z,564.97
2023-01-01T00:57:45.687Z,401.77
2023-01-01T01:00:15.424Z,573.33
2023-01-01T01:02:44.954Z,674.13
2023-01-01T01:05:13.224Z,999.90
2023-01-01T01:07:41.683Z,665.60
2023-01-01T01:10:12.190Z,544.63
2023-01-01T01:12:40.559Z,383.37
2023-01-01T01:15:10.410Z,410.37
2023-01-01T01:17:38.651Z,683.17
2023-01-01T01:20:09.471Z,749.67
2023-01-01T01:22:38.746Z,546.43
2023-01-01T01:25:08.927Z,367.37
2023-01-01T01:27:37.377Z,999.90
2023-01-01T01:30:06.397Z,384.07
2023-01-01T01:32:34.631Z,468.20
2023-01-01T01:35:02.761Z,588.80
2023-01-01T01:37:32.227Z,497.83
2023-01-01T01:40:00.408Z,548.80
2023-01-01T01:42:28.641Z,594.10
2023-01-01T01:44:59.028Z,492.47
2023-01-01T01:47:32.411Z,534.30
2023-01-01T01:50:05.542Z,661.30
2023-01-01T01:52:37.426Z,469.50
2023-01-01T01:55:07.871Z,792.50
2023-01-01T01:57:36.854Z,690.67
2023-01-01T02:00:10.919Z,646.37
2023-01-01T02:02:44.770Z,339.10
2023-01-01T02:05:13.447Z,427.23
2023-01-01T02:07:43.327Z,515.03
2023-01-01T02:10:11.552Z,383.63
2023-01-01T02:12:39.830Z,395.37
2023-01-01T02:15:10.147Z,516.13
2023-01-01T02:17:44.210Z,252.40
2023-01-01T02:20:29.360Z,459.93
2023-01-01T02:23:29.835Z,427.60
2023-01-01T02:26:18.168Z,626.53
2023-01-01T02:28:56.257Z,276.70
2023-01-01T02:31:29.274Z,284.73
2023-01-01T02:34:02.477Z,366.40
2023-01-01T02:36:33.287Z,439.73
2023-01-01T02:39:04.598Z,448.30
2023-01-01T02:41:37.795Z,395.23
2023-01-01T02:44:07.556Z,640.90
2023-01-01T02:46:37.089Z,397.97
2023-01-01T02:49:10.195Z,485.83
2023-01-01T02:51:49.608Z,394.80
2023-01-01T02:54:29.210Z,829.73
2023-01-01T02:57:05.535Z,328.83
2023-01-01T03:00:00.236Z,590.63
2023-01-01T03:02:46.728Z,427.67
2023-01-01T03:05:23.186Z,192.03
2023-01-01T03:08:03.727Z,339.50
2023-01-01T03:10:37.456Z,692.60
2023-01-01T03:13:15.978Z,413.33
2023-01-01T03:15:52.842Z,472.00
2023-01-01T03:18:28.132Z,532.13
2023-01-01T03:21:00.591Z,435.30
2023-01-01T03:23:35.884Z,508.07
2023-01-01T03:26:09.690Z,566.43
2023-01-01T03:28:42.773Z,535.73
2023-01-01T03:31:15.155Z,573.17
2023-01-01T03:33:48.530Z,486.77
2023-01-01T03:36:20.961Z,577.87
2023-01-01T03:38:52.658Z,497.57
2023-01-01T03:41:27.300Z,405.77
2023-01-01T03:44:03.212Z,671.90
2023-01-01T03:46:36.032Z,306.13
2023-01-01T03:49:06.468Z,381.90
2023-01-01T03:51:52.649Z,380.43
2023-01-01T03:54:37.033Z,691.07
2023-01-01T03:57:12.692Z,510.83
2023-01-01T03:59:49.722Z,467.60
2023-01-01T04:02:22.306Z,319.70
2023-01-01T04:04:51.094Z,723.33
2023-01-01T04:07:19.355Z,694.90
2023-01-01T04:09:51.214Z,528.20
2023-01-01T04:12:20.350Z,391.47
2023-01-01T04:14:48.440Z,404.43
2023-01-01T04:17:18.514Z,463.70
2023-01-01T04:19:53.105Z,364.60
2023-01-01T04:22:23.920Z,844.57
2023-01-01T04:24:52.091Z,513.70
2023-01-01T04:27:20.178Z,573.77
2023-01-01T04:29:48.298Z,603.60
2023-01-01T04:32:16.355Z,823.17
2023-01-01T04:34:45.814Z,424.83
2023-01-01T04:37:13.953Z,632.13
2023-01-01T04:39:42.113Z,859.90
2023-01-01T04:42:10.559Z,593.13
2023-01-01T04:44:40.599Z,639.60
2023-01-01T04:47:09.119Z,549.53
2023-01-01T04:49:37.482Z,451.03
2023-01-01T04:52:07.162Z,753.03
2023-01-01T04:54:35.227Z,664.90
2023-01-01T04:57:03.321Z,597.97
2023-01-01T04:59:31.886Z,498.00
2023-01-01T05:02:00.413Z,662.90
2023-01-01T05:04:28.762Z,413.53
2023-01-01T05:06:56.921Z,518.07
2023-01-01T05:09:26.417Z,508.40
2023-01-01T05:11:56.124Z,467.57
2023-01-01T05:14:24.320Z,527.40
2023-01-01T05:16:53.811Z,523.33
2023-01-01T05:19:21.919Z,317.53
2023-01-01T05:21:49.997Z,577.97
2023-01-01T05:24:18.068Z,231.03
2023-01-01T05:26:47.546Z,637.13
2023-01-01T05:29:17.219Z,669.13
2023-01-01T05:31:46.682Z,776.60
2023-01-01T05:34:15.839Z,530.73
2023-01-01T05:36:43.973Z,521.63
2023-01-01T05:39:13.651Z,569.17
2023-01-01T05:41:41.922Z,702.73
2023-01-01T05:44:11.757Z,714.37
2023-01-01T05:46:40.275Z,677.13
2023-01-01T05:49:11.028Z,339.03
2023-01-01T05:54:06.333Z,613.10
2023-01-01T05:56:34.764Z,555.50
2023-01-01T05:59:02.868Z,351.87
2023-01-01T06:01:32.943Z,522.10
2023-01-01T06:04:01.388Z,578.43
2023-01-01T06:06:33.204Z,521.73
2023-01-01T06:09:04.716Z,272.80
2023-01-01T06:11:33.912Z,397.47
2023-01-01T06:14:02.562Z,650.90
2023-01-01T06:16:32.950Z,720.33
2023-01-01T06:19:01.267Z,543.17
2023-01-01T06:21:30.570Z,390.87
2023-01-01T06:23:59.798Z,420.77
2023-01-01T06:26:29.834Z,459.57
2023-01-01T06:28:58.536Z,587.77
2023-01-01T06:31:27.233Z,471.27
2023-01-01T06:33:57.010Z,370.00
2023-01-01T06:36:26.712Z,388.73
2023-01-01T06:38:57.125Z,548.40
2023-01-01T06:41:27.242Z,586.57
2023-01-01T06:43:56.370Z,547.73
2023-01-01T06:46:26.198Z,593.40
2023-01-01T06:48:58.300Z,749.90
2023-01-01T06:51:28.233Z,619.17
2023-01-01T06:53:59.100Z,355.50
2023-01-01T06:56:27.520Z,298.20
2023-01-01T06:58:55.660Z,625.17
2023-01-01T07:01:26.087Z,686.90
2023-01-01T07:03:55.913Z,350.93
2023-01-01T07:06:26.318Z,498.10
2023-01-01T07:08:54.695Z,715.77
2023-01-01T07:11:22.954Z,742.47
2023-01-01T07:13:50.987Z,553.13
2023-01-01T07:16:19.185Z,453.87
2023-01-01T07:18:49.105Z,304.17
2023-01-01T07:21:41.330Z,470.67
2023-01-01T07:24:12.558Z,494.73
2023-01-01T07:26:41.155Z,595.37
2023-01-01T07:29:09.648Z,434.07
2023-01-01T07:31:39.648Z,874.30
2023-01-01T07:34:08.413Z,786.00
2023-01-01T07:36:38.336Z,830.50
2023-01-01T07:39:06.384Z,332.23
2023-01-01T07:41:34.508Z,352.40
2023-01-01T07:44:02.564Z,246.40
2023-01-01T07:46:31.075Z,721.50
2023-01-01T07:48:59.166Z,391.83
2023-01-01T07:51:27.743Z,289.33
2023-01-01T07:54:02.190Z,344.53
2023-01-01T07:56:35.418Z,321.30
2023-01-01T07:59:03.582Z,673.37
2023-01-01T08:01:31.704Z,654.10
2023-01-01T08:03:59.832Z,672.37
2023-01-01T08:06:28.107Z,558.80
2023-01-01T08:08:57.865Z,759.87
2023-01-01T08:11:26.069Z,927.50
2023-01-01T08:13:54.138Z,708.33
2023-01-01T08:16:22.205Z,789.23
2023-01-01T08:18:50.462Z,679.67
2023-01-01T08:21:18.624Z,823.37
2023-01-01T08:23:46.685Z,801.43
2023-01-01T08:26:18.054Z,648.90
2023-01-01T08:28:47.218Z,867.67
2023-01-01T08:31:17.690Z,626.63
2023-01-01T08:33:45.765Z,700.80
2023-01-01T08:36:16.413Z,704.43
2023-01-01T08:38:44.836Z,916.40
2023-01-01T08:41:12.942Z,791.23
2023-01-01T08:43:42.382Z,792.90
2023-01-01T08:46:10.535Z,687.77
2023-01-01T08:48:38.609Z,480.83
2023-01-01T08:51:07.158Z,910.33
2023-01-01T08:53:35.258Z,987.30
2023-01-01T08:56:05.568Z,887.47
2023-01-01T08:58:34.514Z,836.00
2023-01-01T09:01:04.415Z,682.63
2023-01-01T09:03:32.670Z,675.70
2023-01-01T09:06:01.005Z,661.60
2023-01-01T09:08:29.314Z,870.23
2023-01-01T09:11:00.159Z,527.17
2023-01-01T09:13:28.547Z,636.73
2023-01-01T09:15:56.831Z,641.53
2023-01-01T09:18:26.358Z,718.03
2023-01-01T09:20:54.538Z,725.30
2023-01-01T09:23:22.963Z,744.83
2023-01-01T09:25:51.005Z,616.93
2023-01-01T09:28:25.166Z,667.20
2023-01-01T09:30:53.827Z,583.80
2023-01-01T09:33:21.946Z,815.60
2023-01-01T09:35:51.368Z,658.37
2023-01-01T09:38:19.625Z,532.90
2023-01-01T09:40:57.006Z,719.30
2023-01-01T09:43:36.221Z,912.77
2023-01-01T09:46:07.230Z,662.40
2023-01-01T09:48:39.151Z,517.63
2023-01-01T09:51:14.885Z,794.47
2023-01-01T09:53:46.300Z,460.77
2023-01-01T09:56:18.390Z,905.07
2023-01-01T09:58:46.551Z,665.60
2023-01-01T10:01:22.234Z,746.20
2023-01-01T10:04:00.852Z,387.73
2023-01-01T10:06:33.414Z,595.43
2023-01-01T10:09:12.396Z,672.83
2023-01-01T10:11:49.420Z,627.37
2023-01-01T10:14:24.895Z,897.20
2023-01-01T10:16:57.618Z,393.13
2023-01-01T10:19:34.736Z,719.53
2023-01-01T10:22:09.185Z,551.37
2023-01-01T10:24:43.971Z,416.53
2023-01-01T10:27:23.567Z,359.17
2023-01-01T10:29:56.798Z,559.53
2023-01-01T10:32:32.217Z,311.20
2023-01-01T10:35:01.570Z,731.23
2023-01-01T10:37:37.196Z,518.93
2023-01-01T10:40:09.006Z,537.57
2023-01-01T10:42:37.087Z,653.17
2023-01-01T10:45:05.764Z,638.20
2023-01-01T10:47:33.837Z,718.23
2023-01-01T10:50:07.595Z,422.70
2023-01-01T10:52:40.641Z,757.50
2023-01-01T10:55:21.860Z,687.63
2023-01-01T10:57:49.989Z,554.40
2023-01-01T11:00:24.031Z,535.47
2023-01-01T11:03:13.808Z,632.43
2023-01-01T11:05:41.893Z,829.17
2023-01-01T11:08:20.174Z,596.97
2023-01-01T11:10:53.218Z,702.70
2023-01-01T11:13:22.353Z,629.00
2023-01-01T11:15:50.978Z,622.43
2023-01-01T11:18:23.667Z,768.87
2023-01-01T11:20:56.087Z,584.60
2023-01-01T11:23:34.090Z,772.90
2023-01-01T11:26:20.095Z,662.10
2023-01-01T11:29:01.464Z,685.10
2023-01-01T11:31:32.425Z,432.20
2023-01-01T11:34:00.485Z,798.40
2023-01-01T11:36:30.843Z,511.10
2023-01-01T11:39:23.412Z,962.30
2023-01-01T11:41:54.019Z,592.93
2023-01-01T11:44:35.708Z,706.80
2023-01-01T11:47:04.548Z,251.87
2023-01-01T11:49:33.254Z,573.37
2023-01-01T11:52:01.515Z,757.80
2023-01-01T11:54:36.195Z,358.73
2023-01-01T11:57:12.245Z,404.73
2023-01-01T11:59:47.459Z,767.50
2023-01-01T12:02:19.759Z,742.37
2023-01-01T12:04:52.502Z,719.13
2023-01-01T12:07:25.416Z,542.00
2023-01-01T12:10:01.530Z,657.70
2023-01-01T12:12:35.607Z,822.70
2023-01-01T12:15:07.517Z,772.13
2023-01-01T12:17:40.846Z,576.23
2023-01-01T12:20:17.392Z,607.77
2023-01-01T12:22:45.495Z,707.30
2023-01-01T12:25:17.335Z,889.80
2023-01-01T12:27:59.104Z,473.27
2023-01-01T12:30:33.123Z,717.30
2023-01-01T12:33:27.702Z,357.43
2023-01-01T12:36:06.851Z,399.33
2023-01-01T12:39:03.042Z,324.03
2023-01-01T12:41:41.920Z,724.37
2023-01-01T12:44:19.447Z,755.03
2023-01-01T12:46:55.401Z,730.30
2023-01-01T12:49:43.825Z,617.77
2023-01-01T12:52:21.204Z,825.37
2023-01-01T12:55:18.467Z,403.60
2023-01-01T12:57:52.693Z,802.87
2023-01-01T13:00:21.813Z,837.77
2023-01-01T13:02:53.629Z,575.07
2023-01-01T13:05:25.236Z,340.77
2023-01-01T13:07:59.262Z,789.40
2023-01-01T13:10:30.991Z,534.13
2023-01-01T13:13:00.458Z,879.23
2023-01-01T13:15:52.154Z,841.40
2023-01-01T13:18:33.394Z,510.73
2023-01-01T13:21:08.856Z,741.77
2023-01-01T13:23:53.838Z,374.63
2023-01-01T13:26:38.672Z,713.63
2023-01-01T13:29:34.642Z,573.77
2023-01-01T13:32:08.376Z,744.60
2023-01-01T13:35:05.802Z,727.13
2023-01-01T13:37:45.639Z,578.87
2023-01-01T13:40:51.556Z,819.20
2023-01-01T13:43:27.445Z,702.70
2023-01-01T13:46:14.842Z,757.33
2023-01-01T13:49:12.423Z,872.50
2023-01-01T13:52:07.658Z,878.67
2023-01-01T13:55:15.103Z,761.23
2023-01-01T13:58:15.680Z,388.33
2023-01-01T14:01:01.551Z,634.13
2023-01-01T14:03:32.301Z,513.83
2023-01-01T14:06:04.011Z,492.27
2023-01-01T14:08:33.894Z,531.47
2023-01-01T14:11:03.346Z,505.00
2023-01-01T14:13:39.668Z,497.30
2023-01-01T14:16:13.831Z,405.97
2023-01-01T14:18:44.488Z,601.77
2023-01-01T14:21:14.719Z,186.03
2023-01-01T14:23:45.224Z,585.53
2023-01-01T14:26:17.376Z,375.87
2023-01-01T14:28:45.831Z,595.40
2023-01-01T14:31:17.543Z,306.73
2023-01-01T14:33:46.309Z,796.57
2023-01-01T14:36:21.231Z,519.37
2023-01-01T14:38:51.474Z,417.60
2023-01-01T14:41:25.560Z,766.00
2023-01-01T14:43:56.398Z,724.23
2023-01-01T14:46:27.798Z,460.10
2023-01-01T14:48:59.481Z,560.87
2023-01-01T14:51:28.999Z,583.67
2023-01-01T14:54:00.467Z,346.03
2023-01-01T14:56:31.742Z,587.77
2023-01-01T14:59:07.737Z,324.53
2023-01-01T15:01:37.233Z,355.90
2023-01-01T15:04:17.079Z,176.73
2023-01-01T15:06:45.252Z,452.77
2023-01-01T15:09:17.464Z,254.40
2023-01-01T15:11:45.585Z,285.63
2023-01-01T15:14:30.545Z,725.03
2023-01-01T15:17:04.768Z,437.30
2023-01-01T15:19:34.938Z,398.00
2023-01-01T15:22:08.912Z,531.43
2023-01-01T15:24:38.868Z,486.23
2023-01-01T15:27:08.565Z,411.67
2023-01-01T15:29:39.466Z,312.63
2023-01-01T15:32:11.390Z,639.97
2023-01-01T15:34:44.226Z,532.23
2023-01-01T15:37:16.421Z,409.47
2023-01-01T15:39:50.798Z,381.43
2023-01-01T15:42:36.761Z,637.57
2023-01-01T15:45:21.946Z,504.57
2023-01-01T15:47:52.541Z,272.30
2023-01-01T15:50:24.004Z,479.10
2023-01-01T15:52:55.922Z,399.20
2023-01-01T15:55:27.168Z,449.93
2023-01-01T15:57:56.322Z,265.90
2023-01-01T16:00:26.288Z,440.47
2023-01-01T16:02:59.522Z,216.03
2023-01-01T16:05:28.683Z,422.50
2023-01-01T16:08:01.923Z,638.57
2023-01-01T16:10:30.197Z,432.50
2023-01-01T16:12:59.171Z,223.50
2023-01-01T16:15:27.437Z,490.17
2023-01-01T16:17:57.001Z,528.03
2023-01-01T16:20:25.518Z,208.17
2023-01-01T16:22:53.659Z,480.33
2023-01-01T16:25:23.648Z,418.47
2023-01-01T16:27:51.694Z,372.93
2023-01-01T16:30:19.837Z,579.97
2023-01-01T16:32:49.199Z,455.13
2023-01-01T16:35:18.844Z,368.57
2023-01-01T16:37:46.873Z,333.87
2023-01-01T16:40:15.480Z,373.07
2023-01-01T16:42:43.637Z,232.60
2023-01-01T16:45:18.069Z,303.03
2023-01-01T16:47:46.444Z,290.97
2023-01-01T16:50:14.763Z,579.33
2023-01-01T16:52:45.221Z,388.30
2023-01-01T16:55:14.425Z,313.90
2023-01-01T16:57:43.774Z,404.70
2023-01-01T17:00:13.154Z,325.40
2023-01-01T17:02:41.530Z,448.67
2023-01-01T17:05:10.979Z,343.63
2023-01-01T17:07:39.056Z,418.40
2023-01-01T17:10:09.383Z,244.57
2023-01-01T17:12:37.423Z,240.87
2023-01-01T17:15:06.348Z,257.20
2023-01-01T17:17:34.476Z,298.27
2023-01-01T17:20:02.525Z,348.60
2023-01-01T17:22:34.353Z,441.00
2023-01-01T17:25:03.058Z,245.37
2023-01-01T17:27:32.496Z,222.77
2023-01-01T17:30:00.712Z,353.60
2023-01-01T17:32:28.890Z,461.40
2023-01-01T17:34:57.025Z,323.60
2023-01-01T17:37:25.265Z,130.63
2023-01-01T17:39:53.502Z,333.67
2023-01-01T17:42:21.903Z,188.17
2023-01-01T17:44:51.533Z,259.83
2023-01-01T17:47:19.707Z,364.37
2023-01-01T17:49:48.573Z,136.83
2023-01-01T17:52:16.711Z,202.10
2023-01-01T17:54:44.796Z,240.30
2023-01-01T17:57:12.874Z,161.50
2023-01-01T17:59:40.931Z,230.03
2023-01-01T18:02:13.975Z,195.70
2023-01-01T18:04:42.578Z,318.93
2023-01-01T18:07:10.715Z,376.90
2023-01-01T18:09:38.826Z,296.37
2023-01-01T18:12:07.637Z,246.63
2023-01-01T18:14:35.717Z,216.03
2023-01-01T18:17:03.780Z,316.23
2023-01-01T18:19:33.466Z,253.37
2023-01-01T18:22:01.517Z,262.50
2023-01-01T18:24:30.110Z,127.43
2023-01-01T18:26:58.193Z,154.10
2023-01-01T18:29:26.203Z,96.37
2023-01-01T18:31:54.270Z,242.30
2023-01-01T18:34:22.417Z,255.03
2023-01-01T18:36:51.852Z,220.10
2023-01-01T18:39:24.499Z,244.13
2023-01-01T18:42:05.877Z,119.73
2023-01-01T18:44:34.874Z,111.60
2023-01-01T18:47:14.124Z,382.47
2023-01-01T18:49:45.739Z,40.17
2023-01-01T18:52:21.407Z,436.17
2023-01-01T18:54:59.006Z,328.27
2023-01-01T18:57:29.698Z,308.33
2023-01-01T19:00:00.373Z,220.50
2023-01-01T19:02:38.655Z,212.13
2023-01-01T19:05:19.495Z,208.80
2023-01-01T19:07:54.549Z,78.07
2023-01-01T19:10:22.610Z,231.07
2023-01-01T19:12:54.850Z,195.33
2023-01-01T19:15:24.521Z,165.40
2023-01-01T19:17:54.823Z,40.67
2023-01-01T19:20:24.635Z,161.03
2023-01-01T19:22:54.176Z,135.97
2023-01-01T19:25:38.457Z,102.10
2023-01-01T19:28:32.675Z,999.90
2023-01-01T19:31:01.584Z,274.83
2023-01-01T19:33:30.502Z,257.70
2023-01-01T19:35:59.078Z,223.97
2023-01-01T19:38:28.682Z,239.37
2023-01-01T19:40:56.757Z,96.87
2023-01-01T19:43:24.767Z,100.67
2023-01-01T19:45:52.918Z,107.50
2023-01-01T19:48:21.008Z,46.60
2023-01-01T19:50:49.092Z,54.13
2023-01-01T19:53:17.198Z,131.90
2023-01-01T19:55:46.628Z,179.13
2023-01-01T19:58:14.707Z,297.13
2023-01-01T20:00:43.102Z,147.50
2023-01-01T20:03:51.362Z,504.77
2023-01-01T20:05:59.198Z,176.73
2023-01-01T20:08:28.642Z,295.33
2023-01-01T20:10:58.186Z,202.20
2023-01-01T20:13:26.637Z,124.83
2023-01-01T20:15:54.918Z,68.27
2023-01-01T20:18:23.007Z,90.13
2023-01-01T20:21:08.554Z,100.27
2023-01-01T20:23:36.591Z,242.93
2023-01-01T20:26:06.421Z,234.53
2023-01-01T20:28:52.103Z,185.93
2023-01-01T20:31:20.304Z,302.00
2023-01-01T20:33:48.384Z,136.50
2023-01-01T20:36:33.694Z,333.07
2023-01-01T20:39:01.746Z,93.50
2023-01-01T20:41:31.154Z,296.67
2023-01-01T20:44:01.604Z,528.03
2023-01-01T20:46:30.819Z,236.00
2023-01-01T20:48:59.279Z,148.53
2023-01-01T20:51:28.465Z,151.27
2023-01-01T20:53:56.684Z,60.27
2023-01-01T20:56:24.930Z,79.30
2023-01-01T20:59:00.080Z,385.63
2023-01-01T21:01:33.279Z,302.27
2023-01-01T21:04:01.530Z,251.80
2023-01-01T21:06:29.744Z,343.33
2023-01-01T21:08:57.980Z,529.83
2023-01-01T21:11:26.257Z,76.03
2023-01-01T21:13:55.820Z,116.63
2023-01-01T21:16:26.404Z,195.90
2023-01-01T21:18:54.646Z,547.60
2023-01-01T21:21:25.342Z,186.57
2023-01-01T21:23:58.592Z,222.67
2023-01-01T21:26:28.527Z,193.70
2023-01-01T21:29:00.998Z,75.80
2023-01-01T21:31:38.088Z,82.60
2023-01-01T21:34:20.409Z,178.40
2023-01-01T21:36:48.611Z,167.40
2023-01-01T21:39:19.892Z,311.03
2023-01-01T21:41:48.061Z,265.03
2023-01-01T21:44:17.604Z,209.20
2023-01-01T21:46:55.422Z,97.87
2023-01-01T21:49:35.235Z,225.33
2023-01-01T21:52:04.210Z,146.33
2023-01-01T21:54:34.357Z,451.83
2023-01-01T21:57:11.694Z,120.80
2023-01-01T21:59:44.532Z,171.23
2023-01-01T22:02:40.944Z,280.77
2023-01-01T22:05:31.163Z,208.60
2023-01-01T22:08:00.100Z,220.90
2023-01-01T22:10:33.225Z,116.57
2023-01-01T22:13:02.267Z,186.33
2023-01-01T22:15:40.033Z,140.83
2023-01-01T22:18:32.886Z,81.37
2023-01-01T22:21:02.948Z,182.83
2023-01-01T22:23:38.829Z,140.30
2023-01-01T22:26:17.998Z,277.80
2023-01-01T22:28:48.398Z,374.80
2023-01-01T22:31:24.641Z,194.83
2023-01-01T22:33:53.996Z,189.97
2023-01-01T22:36:25.543Z,153.27
2023-01-01T22:38:58.380Z,324.33
2023-01-01T22:41:26.748Z,325.20
2023-01-01T22:43:59.065Z,169.57
2023-01-01T22:46:33.077Z,209.70
2023-01-01T22:49:03.802Z,205.90
2023-01-01T22:51:39.906Z,157.70
2023-01-01T22:54:07.934Z,229.30
2023-01-01T22:56:36.080Z,210.37
2023-01-01T22:59:04.354Z,273.33
2023-01-01T23:01:33.921Z,208.63
2023-01-01T23:04:02.064Z,179.17
2023-01-01T23:06:30.251Z,252.60
2023-01-01T23:08:58.894Z,260.80
2023-01-01T23:11:28.043Z,391.43
2023-01-01T23:14:13.297Z,238.73
2023-01-01T23:16:42.736Z,248.97
2023-01-01T23:19:10.781Z,175.67
2023-01-01T23:21:42.289Z,132.43
2023-01-01T23:24:15.153Z,218.97
2023-01-01T23:26:44.104Z,290.13
2023-01-01T23:29:13.258Z,63.13
2023-01-01T23:31:44.818Z,72.63
2023-01-01T23:34:13.574Z,132.97
2023-01-01T23:36:42.451Z,193.27
2023-01-01T23:39:10.499Z,376.97
2023-01-01T23:41:38.617Z,111.17
2023-01-01T23:44:06.850Z,197.47
2023-01-01T23:46:36.266Z,109.53
2023-01-01T23:49:06.759Z,612.43
2023-01-01T23:51:35.295Z,289.13
2023-01-01T23:54:03.388Z,188.83
2023-01-01T23:56:31.508Z,477.60
2023-01-01T23:58:59.565Z,180.57
